sensor_id;sensor_type;location;lat;lon;timestamp;P1;durP1;ratioP1;P2;durP2;ratioP2
59516;SDS011;45342;42.662;27.718;2022-10-18T00:00:34;4.70;;;3.45;;
59516;SDS011;45342;42.662;27.718;2022-10-18T00:03:00;6.00;;;3.80;;
59516;SDS011;45342;42.662;27.718;2022-10-18T00:05:25;6.07;;;4.00;;
59516;SDS011;45342;42.662;27.718;2022-10-18T00:07:51;5.90;;;3.90;;
59516;SDS011;45342;42.662;27.718;2022-10-18T00:10:17;5.45;;;3.75;;
59516;SDS011;45342;42.662;27.718;2022-10-18T00:12:42;5.55;;;3.75;;
59516;SDS011;45342;42.662;27.718;2022-10-18T00:15:09;7.22;;;4.10;;
59516;SDS011;45342;42.662;27.718;2022-10-18T00:17:36;5.10;;;3.55;;
59516;SDS011;45342;42.662;27.718;2022-10-18T00:20:02;6.22;;;3.95;;
59516;SDS011;45342;42.662;27.718;2022-10-18T00:22:29;4.15;;;3.28;;
59516;SDS011;45342;42.662;27.718;2022-10-18T00:24:55;5.70;;;3.85;;
59516;SDS011;45342;42.662;27.718;2022-10-18T00:27:20;5.22;;;3.75;;
59516;SDS011;45342;42.662;27.718;2022-10-18T00:29:46;6.07;;;3.85;;
59516;SDS011;45342;42.662;27.718;2022-10-18T00:32:11;4.93;;;3.75;;
59516;SDS011;45342;42.662;27.718;2022-10-18T00:34:37;5.93;;;3.88;;
59516;SDS011;45342;42.662;27.718;2022-10-18T00:37:04;4.97;;;3.78;;
59516;SDS011;45342;42.662;27.718;2022-10-18T00:39:30;4.55;;;3.75;;
59516;SDS011;45342;42.662;27.718;2022-10-18T00:41:56;4.18;;;3.22;;
59516;SDS011;45342;42.662;27.718;2022-10-18T00:46:50;5.18;;;3.90;;
59516;SDS011;45342;42.662;27.718;2022-10-18T00:49:18;6.72;;;3.83;;
59516;SDS011;45342;42.662;27.718;2022-10-18T00:52:06;4.82;;;4.00;;
59516;SDS011;45342;42.662;27.718;2022-10-18T00:54:34;4.53;;;3.67;;
59516;SDS011;45342;42.662;27.718;2022-10-18T00:57:01;6.13;;;4.20;;
59516;SDS011;45342;42.662;27.718;2022-10-18T00:59:27;5.82;;;4.15;;
59516;SDS011;45342;42.662;27.718;2022-10-18T01:01:53;5.35;;;4.13;;
59516;SDS011;45342;42.662;27.718;2022-10-18T01:04:19;6.35;;;4.28;;
59516;SDS011;45342;42.662;27.718;2022-10-18T01:14:33;8.15;;;4.43;;
59516;SDS011;45342;42.662;27.718;2022-10-18T01:17:21;6.05;;;4.40;;
59516;SDS011;45342;42.662;27.718;2022-10-18T01:22:59;7.50;;;4.50;;
59516;SDS011;45342;42.662;27.718;2022-10-18T01:31:09;7.15;;;4.20;;
59516;SDS011;45342;42.662;27.718;2022-10-18T01:33:42;5.35;;;4.32;;
59516;SDS011;45342;42.662;27.718;2022-10-18T01:36:20;7.47;;;4.40;;
59516;SDS011;45342;42.662;27.718;2022-10-18T01:38:56;6.03;;;4.25;;
59516;SDS011;45342;42.662;27.718;2022-10-18T01:41:23;5.75;;;4.45;;
59516;SDS011;45342;42.662;27.718;2022-10-18T01:43:53;6.70;;;4.85;;
59516;SDS011;45342;42.662;27.718;2022-10-18T01:46:22;6.38;;;4.35;;
59516;SDS011;45342;42.662;27.718;2022-10-18T01:48:49;5.03;;;4.10;;
59516;SDS011;45342;42.662;27.718;2022-10-18T01:51:22;4.88;;;3.88;;
59516;SDS011;45342;42.662;27.718;2022-10-18T01:53:51;6.80;;;4.40;;
59516;SDS011;45342;42.662;27.718;2022-10-18T01:56:26;6.68;;;4.95;;
59516;SDS011;45342;42.662;27.718;2022-10-18T02:01:32;8.32;;;5.03;;
59516;SDS011;45342;42.662;27.718;2022-10-18T02:04:02;7.05;;;5.05;;
59516;SDS011;45342;42.662;27.718;2022-10-18T02:06:34;7.57;;;5.07;;
59516;SDS011;45342;42.662;27.718;2022-10-18T02:09:16;6.20;;;4.65;;
59516;SDS011;45342;42.662;27.718;2022-10-18T02:14:13;8.90;;;5.00;;
59516;SDS011;45342;42.662;27.718;2022-10-18T02:19:40;6.70;;;4.43;;
59516;SDS011;45342;42.662;27.718;2022-10-18T02:22:09;7.97;;;4.60;;
59516;SDS011;45342;42.662;27.718;2022-10-18T02:24:40;5.55;;;4.18;;
59516;SDS011;45342;42.662;27.718;2022-10-18T02:27:08;6.53;;;4.40;;
59516;SDS011;45342;42.662;27.718;2022-10-18T02:29:34;5.70;;;4.30;;
59516;SDS011;45342;42.662;27.718;2022-10-18T02:32:05;5.47;;;4.22;;
59516;SDS011;45342;42.662;27.718;2022-10-18T02:34:43;6.30;;;4.85;;
59516;SDS011;45342;42.662;27.718;2022-10-18T02:37:31;7.20;;;4.70;;
59516;SDS011;45342;42.662;27.718;2022-10-18T02:39:59;8.02;;;4.90;;
59516;SDS011;45342;42.662;27.718;2022-10-18T02:42:28;5.72;;;4.53;;
59516;SDS011;45342;42.662;27.718;2022-10-18T02:44:57;6.63;;;4.18;;
59516;SDS011;45342;42.662;27.718;2022-10-18T02:47:23;8.90;;;4.95;;
59516;SDS011;45342;42.662;27.718;2022-10-18T02:49:49;6.05;;;4.60;;
59516;SDS011;45342;42.662;27.718;2022-10-18T02:52:14;6.90;;;4.60;;
59516;SDS011;45342;42.662;27.718;2022-10-18T02:54:40;7.78;;;4.60;;
59516;SDS011;45342;42.662;27.718;2022-10-18T02:57:05;6.13;;;4.28;;
59516;SDS011;45342;42.662;27.718;2022-10-18T02:59:31;5.78;;;4.43;;
59516;SDS011;45342;42.662;27.718;2022-10-18T03:01:56;5.45;;;4.15;;
59516;SDS011;45342;42.662;27.718;2022-10-18T03:04:22;5.53;;;4.40;;
59516;SDS011;45342;42.662;27.718;2022-10-18T03:06:47;5.70;;;4.38;;
59516;SDS011;45342;42.662;27.718;2022-10-18T03:09:13;5.20;;;4.20;;
59516;SDS011;45342;42.662;27.718;2022-10-18T03:11:38;6.10;;;4.28;;
59516;SDS011;45342;42.662;27.718;2022-10-18T03:14:04;6.13;;;4.35;;
59516;SDS011;45342;42.662;27.718;2022-10-18T03:16:30;5.43;;;3.83;;
59516;SDS011;45342;42.662;27.718;2022-10-18T03:18:55;5.93;;;4.00;;
59516;SDS011;45342;42.662;27.718;2022-10-18T03:21:22;4.32;;;3.92;;
59516;SDS011;45342;42.662;27.718;2022-10-18T03:23:47;8.93;;;4.47;;
59516;SDS011;45342;42.662;27.718;2022-10-18T03:26:13;5.22;;;4.07;;
59516;SDS011;45342;42.662;27.718;2022-10-18T03:28:39;6.47;;;4.60;;
59516;SDS011;45342;42.662;27.718;2022-10-18T03:31:04;5.80;;;4.13;;
59516;SDS011;45342;42.662;27.718;2022-10-18T03:33:30;6.30;;;4.05;;
59516;SDS011;45342;42.662;27.718;2022-10-18T03:35:56;5.13;;;4.05;;
59516;SDS011;45342;42.662;27.718;2022-10-18T03:38:22;4.97;;;3.97;;
59516;SDS011;45342;42.662;27.718;2022-10-18T03:40:48;6.65;;;4.53;;
59516;SDS011;45342;42.662;27.718;2022-10-18T03:43:13;4.90;;;3.97;;
59516;SDS011;45342;42.662;27.718;2022-10-18T03:45:39;5.32;;;4.20;;
59516;SDS011;45342;42.662;27.718;2022-10-18T03:48:05;5.00;;;3.72;;
59516;SDS011;45342;42.662;27.718;2022-10-18T03:50:30;4.70;;;4.07;;
59516;SDS011;45342;42.662;27.718;2022-10-18T03:52:56;4.78;;;3.92;;
59516;SDS011;45342;42.662;27.718;2022-10-18T03:55:22;5.10;;;3.95;;
59516;SDS011;45342;42.662;27.718;2022-10-18T03:57:48;5.68;;;3.85;;
59516;SDS011;45342;42.662;27.718;2022-10-18T04:00:13;4.57;;;3.97;;
59516;SDS011;45342;42.662;27.718;2022-10-18T04:02:39;6.63;;;4.05;;
59516;SDS011;45342;42.662;27.718;2022-10-18T04:05:05;5.18;;;4.07;;
59516;SDS011;45342;42.662;27.718;2022-10-18T04:09:57;6.28;;;3.67;;
59516;SDS011;45342;42.662;27.718;2022-10-18T04:12:23;5.70;;;4.15;;
59516;SDS011;45342;42.662;27.718;2022-10-18T04:14:48;5.10;;;3.67;;
59516;SDS011;45342;42.662;27.718;2022-10-18T04:17:14;4.10;;;3.67;;
59516;SDS011;45342;42.662;27.718;2022-10-18T04:19:39;5.35;;;3.85;;
59516;SDS011;45342;42.662;27.718;2022-10-18T04:22:06;4.50;;;3.75;;
59516;SDS011;45342;42.662;27.718;2022-10-18T04:24:32;6.03;;;4.10;;
59516;SDS011;45342;42.662;27.718;2022-10-18T04:26:57;3.85;;;3.50;;
59516;SDS011;45342;42.662;27.718;2022-10-18T04:29:23;5.90;;;3.50;;
59516;SDS011;45342;42.662;27.718;2022-10-18T04:31:49;5.30;;;3.90;;
59516;SDS011;45342;42.662;27.718;2022-10-18T04:34:14;9.20;;;4.18;;
59516;SDS011;45342;42.662;27.718;2022-10-18T04:36:40;7.00;;;3.60;;
59516;SDS011;45342;42.662;27.718;2022-10-18T04:39:05;4.63;;;4.20;;
59516;SDS011;45342;42.662;27.718;2022-10-18T04:41:31;6.68;;;4.25;;
59516;SDS011;45342;42.662;27.718;2022-10-18T04:43:56;5.15;;;3.70;;
59516;SDS011;45342;42.662;27.718;2022-10-18T04:46:22;4.03;;;3.63;;
59516;SDS011;45342;42.662;27.718;2022-10-18T04:48:48;6.88;;;3.70;;
59516;SDS011;45342;42.662;27.718;2022-10-18T04:51:13;4.38;;;3.92;;
59516;SDS011;45342;42.662;27.718;2022-10-18T04:53:39;5.60;;;4.20;;
59516;SDS011;45342;42.662;27.718;2022-10-18T04:56:04;4.70;;;3.67;;
59516;SDS011;45342;42.662;27.718;2022-10-18T04:58:30;4.68;;;3.90;;
59516;SDS011;45342;42.662;27.718;2022-10-18T05:03:22;5.30;;;3.75;;
59516;SDS011;45342;42.662;27.718;2022-10-18T05:05:47;5.40;;;3.78;;
59516;SDS011;45342;42.662;27.718;2022-10-18T05:08:13;5.85;;;3.85;;
59516;SDS011;45342;42.662;27.718;2022-10-18T05:10:39;5.25;;;3.95;;
59516;SDS011;45342;42.662;27.718;2022-10-18T05:13:04;6.28;;;3.70;;
59516;SDS011;45342;42.662;27.718;2022-10-18T05:15:30;5.47;;;3.90;;
59516;SDS011;45342;42.662;27.718;2022-10-18T05:17:55;6.03;;;3.80;;
59516;SDS011;45342;42.662;27.718;2022-10-18T05:20:21;4.43;;;3.70;;
59516;SDS011;45342;42.662;27.718;2022-10-18T05:22:47;4.95;;;3.83;;
59516;SDS011;45342;42.662;27.718;2022-10-18T05:25:12;5.55;;;3.63;;
59516;SDS011;45342;42.662;27.718;2022-10-18T05:27:38;5.07;;;3.83;;
59516;SDS011;45342;42.662;27.718;2022-10-18T05:30:03;5.53;;;4.03;;
59516;SDS011;45342;42.662;27.718;2022-10-18T05:32:29;5.88;;;3.97;;
59516;SDS011;45342;42.662;27.718;2022-10-18T05:34:55;5.82;;;4.20;;
59516;SDS011;45342;42.662;27.718;2022-10-18T05:37:20;4.93;;;3.80;;
59516;SDS011;45342;42.662;27.718;2022-10-18T05:39:46;5.70;;;3.80;;
59516;SDS011;45342;42.662;27.718;2022-10-18T05:42:12;7.65;;;4.38;;
59516;SDS011;45342;42.662;27.718;2022-10-18T05:44:39;5.32;;;4.00;;
59516;SDS011;45342;42.662;27.718;2022-10-18T05:47:05;6.38;;;4.00;;
59516;SDS011;45342;42.662;27.718;2022-10-18T05:49:31;5.85;;;4.03;;
59516;SDS011;45342;42.662;27.718;2022-10-18T05:51:56;5.85;;;3.78;;
59516;SDS011;45342;42.662;27.718;2022-10-18T05:54:22;5.18;;;4.18;;
59516;SDS011;45342;42.662;27.718;2022-10-18T05:56:47;5.45;;;3.85;;
59516;SDS011;45342;42.662;27.718;2022-10-18T05:59:13;6.07;;;4.00;;
59516;SDS011;45342;42.662;27.718;2022-10-18T06:01:39;4.82;;;4.00;;
59516;SDS011;45342;42.662;27.718;2022-10-18T06:04:07;5.47;;;3.88;;
59516;SDS011;45342;42.662;27.718;2022-10-18T06:06:34;5.68;;;3.90;;
59516;SDS011;45342;42.662;27.718;2022-10-18T06:09:00;4.88;;;3.65;;
59516;SDS011;45342;42.662;27.718;2022-10-18T06:11:27;7.18;;;3.60;;
59516;SDS011;45342;42.662;27.718;2022-10-18T06:13:54;4.78;;;3.40;;
59516;SDS011;45342;42.662;27.718;2022-10-18T06:16:21;4.70;;;3.58;;
59516;SDS011;45342;42.662;27.718;2022-10-18T06:18:52;7.35;;;3.88;;
59516;SDS011;45342;42.662;27.718;2022-10-18T06:21:20;4.57;;;3.58;;
59516;SDS011;45342;42.662;27.718;2022-10-18T06:23:53;6.00;;;4.10;;
59516;SDS011;45342;42.662;27.718;2022-10-18T06:26:20;4.40;;;3.80;;
59516;SDS011;45342;42.662;27.718;2022-10-18T06:28:45;5.05;;;3.90;;
59516;SDS011;45342;42.662;27.718;2022-10-18T06:31:11;5.40;;;3.63;;
59516;SDS011;45342;42.662;27.718;2022-10-18T06:38:30;5.57;;;3.80;;
59516;SDS011;45342;42.662;27.718;2022-10-18T06:40:56;5.82;;;3.60;;
59516;SDS011;45342;42.662;27.718;2022-10-18T06:43:22;5.50;;;3.58;;
59516;SDS011;45342;42.662;27.718;2022-10-18T06:45:49;5.63;;;3.70;;
59516;SDS011;45342;42.662;27.718;2022-10-18T06:48:18;5.25;;;3.80;;
59516;SDS011;45342;42.662;27.718;2022-10-18T06:50:54;5.10;;;3.35;;
59516;SDS011;45342;42.662;27.718;2022-10-18T06:53:21;5.05;;;3.67;;
59516;SDS011;45342;42.662;27.718;2022-10-18T06:55:48;5.75;;;3.90;;
59516;SDS011;45342;42.662;27.718;2022-10-18T06:58:13;4.13;;;3.70;;
59516;SDS011;45342;42.662;27.718;2022-10-18T07:00:39;4.72;;;3.75;;
59516;SDS011;45342;42.662;27.718;2022-10-18T07:03:05;5.95;;;3.38;;
59516;SDS011;45342;42.662;27.718;2022-10-18T07:05:31;4.65;;;3.75;;
59516;SDS011;45342;42.662;27.718;2022-10-18T07:07:56;5.53;;;4.13;;
59516;SDS011;45342;42.662;27.718;2022-10-18T07:10:22;4.22;;;3.53;;
59516;SDS011;45342;42.662;27.718;2022-10-18T07:12:49;5.75;;;3.53;;
59516;SDS011;45342;42.662;27.718;2022-10-18T07:15:15;4.72;;;3.75;;
59516;SDS011;45342;42.662;27.718;2022-10-18T07:17:43;4.25;;;3.25;;
59516;SDS011;45342;42.662;27.718;2022-10-18T07:20:12;5.30;;;3.72;;
59516;SDS011;45342;42.662;27.718;2022-10-18T07:22:37;5.07;;;3.47;;
59516;SDS011;45342;42.662;27.718;2022-10-18T07:25:04;3.45;;;3.15;;
59516;SDS011;45342;42.662;27.718;2022-10-18T07:27:34;5.82;;;3.53;;
59516;SDS011;45342;42.662;27.718;2022-10-18T07:30:04;4.75;;;3.33;;
59516;SDS011;45342;42.662;27.718;2022-10-18T07:32:31;4.97;;;3.47;;
59516;SDS011;45342;42.662;27.718;2022-10-18T07:34:56;6.30;;;3.47;;
59516;SDS011;45342;42.662;27.718;2022-10-18T07:37:22;4.97;;;3.47;;
59516;SDS011;45342;42.662;27.718;2022-10-18T07:39:47;4.65;;;3.47;;
59516;SDS011;45342;42.662;27.718;2022-10-18T07:42:13;5.80;;;3.70;;
59516;SDS011;45342;42.662;27.718;2022-10-18T07:44:39;5.05;;;3.58;;
59516;SDS011;45342;42.662;27.718;2022-10-18T07:47:04;6.32;;;3.80;;
59516;SDS011;45342;42.662;27.718;2022-10-18T07:49:30;3.92;;;3.00;;
59516;SDS011;45342;42.662;27.718;2022-10-18T07:51:55;5.35;;;3.42;;
59516;SDS011;45342;42.662;27.718;2022-10-18T07:54:21;5.22;;;3.33;;
59516;SDS011;45342;42.662;27.718;2022-10-18T07:56:46;7.05;;;3.53;;
59516;SDS011;45342;42.662;27.718;2022-10-18T07:59:12;4.72;;;3.67;;
59516;SDS011;45342;42.662;27.718;2022-10-18T08:01:38;5.88;;;3.33;;
59516;SDS011;45342;42.662;27.718;2022-10-18T08:04:03;5.35;;;3.67;;
59516;SDS011;45342;42.662;27.718;2022-10-18T08:06:29;4.28;;;3.22;;
59516;SDS011;45342;42.662;27.718;2022-10-18T08:08:55;6.50;;;3.50;;
59516;SDS011;45342;42.662;27.718;2022-10-18T08:11:22;3.97;;;3.50;;
59516;SDS011;45342;42.662;27.718;2022-10-18T08:13:49;4.38;;;3.33;;
59516;SDS011;45342;42.662;27.718;2022-10-18T08:18:46;5.90;;;3.45;;
59516;SDS011;45342;42.662;27.718;2022-10-18T08:21:13;4.93;;;3.35;;
59516;SDS011;45342;42.662;27.718;2022-10-18T08:23:39;4.05;;;3.00;;
59516;SDS011;45342;42.662;27.718;2022-10-18T08:28:35;4.68;;;2.95;;
59516;SDS011;45342;42.662;27.718;2022-10-18T08:31:01;5.72;;;3.58;;
59516;SDS011;45342;42.662;27.718;2022-10-18T08:33:28;4.50;;;3.55;;
59516;SDS011;45342;42.662;27.718;2022-10-18T08:35:54;5.15;;;3.58;;
59516;SDS011;45342;42.662;27.718;2022-10-18T08:38:24;6.78;;;4.07;;
59516;SDS011;45342;42.662;27.718;2022-10-18T08:40:50;5.18;;;3.92;;
59516;SDS011;45342;42.662;27.718;2022-10-18T08:45:56;4.97;;;3.60;;
59516;SDS011;45342;42.662;27.718;2022-10-18T08:48:26;5.28;;;3.35;;
59516;SDS011;45342;42.662;27.718;2022-10-18T08:50:59;4.00;;;3.40;;
59516;SDS011;45342;42.662;27.718;2022-10-18T08:53:26;4.50;;;3.47;;
59516;SDS011;45342;42.662;27.718;2022-10-18T08:56:09;5.55;;;3.70;;
59516;SDS011;45342;42.662;27.718;2022-10-18T08:58:38;3.50;;;3.20;;
59516;SDS011;45342;42.662;27.718;2022-10-18T09:20:52;4.38;;;3.30;;
59516;SDS011;45342;42.662;27.718;2022-10-18T09:25:55;7.35;;;3.97;;
59516;SDS011;45342;42.662;27.718;2022-10-18T09:36:25;5.30;;;3.72;;
59516;SDS011;45342;42.662;27.718;2022-10-18T09:38:55;4.28;;;3.55;;
59516;SDS011;45342;42.662;27.718;2022-10-18T09:44:05;5.00;;;3.55;;
59516;SDS011;45342;42.662;27.718;2022-10-18T09:46:40;4.38;;;3.63;;
59516;SDS011;45342;42.662;27.718;2022-10-18T09:51:46;6.43;;;3.13;;
59516;SDS011;45342;42.662;27.718;2022-10-18T09:54:21;4.53;;;3.25;;
59516;SDS011;45342;42.662;27.718;2022-10-18T09:56:50;4.53;;;3.22;;
59516;SDS011;45342;42.662;27.718;2022-10-18T10:01:59;3.88;;;3.10;;
59516;SDS011;45342;42.662;27.718;2022-10-18T10:04:25;6.60;;;2.95;;
59516;SDS011;45342;42.662;27.718;2022-10-18T10:06:52;4.15;;;3.15;;
59516;SDS011;45342;42.662;27.718;2022-10-18T10:09:29;3.55;;;3.05;;
59516;SDS011;45342;42.662;27.718;2022-10-18T10:11:56;6.75;;;3.20;;
59516;SDS011;45342;42.662;27.718;2022-10-18T10:16:55;6.40;;;3.05;;
59516;SDS011;45342;42.662;27.718;2022-10-18T10:22:08;8.00;;;3.17;;
59516;SDS011;45342;42.662;27.718;2022-10-18T10:24:50;6.05;;;3.08;;
59516;SDS011;45342;42.662;27.718;2022-10-18T10:27:42;6.88;;;3.22;;
59516;SDS011;45342;42.662;27.718;2022-10-18T10:32:53;6.82;;;3.38;;
59516;SDS011;45342;42.662;27.718;2022-10-18T10:35:20;5.63;;;3.30;;
59516;SDS011;45342;42.662;27.718;2022-10-18T10:37:53;5.47;;;2.95;;
59516;SDS011;45342;42.662;27.718;2022-10-18T10:40:20;6.53;;;3.47;;
59516;SDS011;45342;42.662;27.718;2022-10-18T10:43:12;4.85;;;3.30;;
59516;SDS011;45342;42.662;27.718;2022-10-18T10:45:58;6.78;;;2.78;;
59516;SDS011;45342;42.662;27.718;2022-10-18T10:48:26;4.15;;;2.83;;
59516;SDS011;45342;42.662;27.718;2022-10-18T10:51:00;4.32;;;2.97;;
59516;SDS011;45342;42.662;27.718;2022-10-18T10:53:31;4.50;;;2.83;;
59516;SDS011;45342;42.662;27.718;2022-10-18T10:56:02;5.60;;;2.80;;
59516;SDS011;45342;42.662;27.718;2022-10-18T10:58:32;4.22;;;2.97;;
59516;SDS011;45342;42.662;27.718;2022-10-18T11:01:15;5.35;;;3.15;;
59516;SDS011;45342;42.662;27.718;2022-10-18T11:04:01;4.82;;;2.95;;
59516;SDS011;45342;42.662;27.718;2022-10-18T11:06:49;3.55;;;2.60;;
59516;SDS011;45342;42.662;27.718;2022-10-18T11:09:21;6.43;;;3.08;;
59516;SDS011;45342;42.662;27.718;2022-10-18T11:11:56;4.93;;;3.17;;
59516;SDS011;45342;42.662;27.718;2022-10-18T11:14:28;4.05;;;2.67;;
59516;SDS011;45342;42.662;27.718;2022-10-18T11:22:32;5.38;;;2.97;;
59516;SDS011;45342;42.662;27.718;2022-10-18T11:25:01;4.57;;;2.80;;
59516;SDS011;45342;42.662;27.718;2022-10-18T11:27:31;3.80;;;2.95;;
59516;SDS011;45342;42.662;27.718;2022-10-18T11:35:45;4.82;;;2.78;;
59516;SDS011;45342;42.662;27.718;2022-10-18T11:38:15;4.47;;;2.97;;
59516;SDS011;45342;42.662;27.718;2022-10-18T11:43:53;4.93;;;2.60;;
59516;SDS011;45342;42.662;27.718;2022-10-18T11:52:03;3.95;;;2.63;;
59516;SDS011;45342;42.662;27.718;2022-10-18T11:54:40;4.20;;;2.60;;
59516;SDS011;45342;42.662;27.718;2022-10-18T12:02:44;4.45;;;3.30;;
59516;SDS011;45342;42.662;27.718;2022-10-18T12:05:12;3.05;;;2.60;;
59516;SDS011;45342;42.662;27.718;2022-10-18T12:07:42;3.75;;;2.88;;
59516;SDS011;45342;42.662;27.718;2022-10-18T12:10:15;6.43;;;2.88;;
59516;SDS011;45342;42.662;27.718;2022-10-18T12:12:53;3.78;;;2.47;;
59516;SDS011;45342;42.662;27.718;2022-10-18T12:15:25;3.72;;;2.78;;
59516;SDS011;45342;42.662;27.718;2022-10-18T12:17:52;3.53;;;2.65;;
59516;SDS011;45342;42.662;27.718;2022-10-18T12:20:34;4.30;;;2.50;;
59516;SDS011;45342;42.662;27.718;2022-10-18T12:23:05;4.47;;;2.72;;
59516;SDS011;45342;42.662;27.718;2022-10-18T12:25:39;4.47;;;2.70;;
59516;SDS011;45342;42.662;27.718;2022-10-18T12:31:17;4.50;;;2.97;;
59516;SDS011;45342;42.662;27.718;2022-10-18T12:33:59;4.10;;;2.70;;
59516;SDS011;45342;42.662;27.718;2022-10-18T12:36:40;5.25;;;3.05;;
59516;SDS011;45342;42.662;27.718;2022-10-18T12:39:27;5.32;;;3.00;;
59516;SDS011;45342;42.662;27.718;2022-10-18T12:41:57;7.22;;;2.95;;
59516;SDS011;45342;42.662;27.718;2022-10-18T12:44:32;4.25;;;2.72;;
59516;SDS011;45342;42.662;27.718;2022-10-18T12:47:03;3.00;;;2.50;;
59516;SDS011;45342;42.662;27.718;2022-10-18T12:49:33;4.75;;;2.67;;
59516;SDS011;45342;42.662;27.718;2022-10-18T12:52:01;3.67;;;2.95;;
59516;SDS011;45342;42.662;27.718;2022-10-18T12:54:33;4.15;;;2.70;;
59516;SDS011;45342;42.662;27.718;2022-10-18T12:57:00;4.18;;;2.97;;
59516;SDS011;45342;42.662;27.718;2022-10-18T13:09:25;3.03;;;2.58;;
59516;SDS011;45342;42.662;27.718;2022-10-18T13:12:00;3.92;;;2.63;;
59516;SDS011;45342;42.662;27.718;2022-10-18T13:25:18;3.30;;;2.60;;
59516;SDS011;45342;42.662;27.718;2022-10-18T13:27:47;4.43;;;2.90;;
59516;SDS011;45342;42.662;27.718;2022-10-18T13:38:07;5.40;;;2.40;;
59516;SDS011;45342;42.662;27.718;2022-10-18T13:41:13;4.65;;;2.38;;
59516;SDS011;45342;42.662;27.718;2022-10-18T13:48:58;3.55;;;2.70;;
59516;SDS011;45342;42.662;27.718;2022-10-18T13:51:30;4.82;;;2.63;;
59516;SDS011;45342;42.662;27.718;2022-10-18T13:56:39;5.78;;;2.80;;
59516;SDS011;45342;42.662;27.718;2022-10-18T14:07:25;3.75;;;2.53;;
59516;SDS011;45342;42.662;27.718;2022-10-18T14:09:51;3.58;;;2.65;;
59516;SDS011;45342;42.662;27.718;2022-10-18T14:12:37;3.58;;;2.53;;
59516;SDS011;45342;42.662;27.718;2022-10-18T14:15:15;4.45;;;2.60;;
59516;SDS011;45342;42.662;27.718;2022-10-18T14:22:42;4.60;;;2.45;;
59516;SDS011;45342;42.662;27.718;2022-10-18T14:25:19;3.97;;;2.60;;
59516;SDS011;45342;42.662;27.718;2022-10-18T14:27:47;5.22;;;2.47;;
59516;SDS011;45342;42.662;27.718;2022-10-18T14:32:44;2.58;;;2.28;;
59516;SDS011;45342;42.662;27.718;2022-10-18T14:35:18;3.58;;;2.42;;
59516;SDS011;45342;42.662;27.718;2022-10-18T14:37:49;4.32;;;2.50;;
59516;SDS011;45342;42.662;27.718;2022-10-18T14:43:12;3.05;;;2.53;;
59516;SDS011;45342;42.662;27.718;2022-10-18T14:45:40;4.13;;;2.40;;
59516;SDS011;45342;42.662;27.718;2022-10-18T14:50:43;4.78;;;3.00;;
59516;SDS011;45342;42.662;27.718;2022-10-18T14:53:16;2.70;;;2.40;;
59516;SDS011;45342;42.662;27.718;2022-10-18T14:55:52;5.55;;;3.50;;
59516;SDS011;45342;42.662;27.718;2022-10-18T14:58:22;5.00;;;3.03;;
59516;SDS011;45342;42.662;27.718;2022-10-18T15:00:50;5.15;;;3.00;;
59516;SDS011;45342;42.662;27.718;2022-10-18T15:03:16;4.22;;;2.65;;
59516;SDS011;45342;42.662;27.718;2022-10-18T15:05:56;5.15;;;3.17;;
59516;SDS011;45342;42.662;27.718;2022-10-18T15:08:29;15.90;;;6.85;;
59516;SDS011;45342;42.662;27.718;2022-10-18T15:11:06;8.07;;;4.22;;
59516;SDS011;45342;42.662;27.718;2022-10-18T15:13:33;7.15;;;3.88;;
59516;SDS011;45342;42.662;27.718;2022-10-18T15:16:03;6.13;;;3.28;;
59516;SDS011;45342;42.662;27.718;2022-10-18T15:23:33;10.10;;;4.28;;
59516;SDS011;45342;42.662;27.718;2022-10-18T15:26:00;8.10;;;3.95;;
59516;SDS011;45342;42.662;27.718;2022-10-18T15:28:31;6.28;;;3.55;;
59516;SDS011;45342;42.662;27.718;2022-10-18T15:31:01;5.50;;;3.60;;
59516;SDS011;45342;42.662;27.718;2022-10-18T15:33:29;5.38;;;3.63;;
59516;SDS011;45342;42.662;27.718;2022-10-18T15:36:10;6.60;;;3.40;;
59516;SDS011;45342;42.662;27.718;2022-10-18T15:38:42;5.78;;;3.50;;
59516;SDS011;45342;42.662;27.718;2022-10-18T15:46:53;4.53;;;3.00;;
59516;SDS011;45342;42.662;27.718;2022-10-18T15:51:49;4.80;;;3.20;;
59516;SDS011;45342;42.662;27.718;2022-10-18T15:54:28;7.82;;;3.47;;
59516;SDS011;45342;42.662;27.718;2022-10-18T15:56:54;5.72;;;3.22;;
59516;SDS011;45342;42.662;27.718;2022-10-18T15:59:23;7.50;;;3.60;;
59516;SDS011;45342;42.662;27.718;2022-10-18T16:01:50;5.32;;;3.45;;
59516;SDS011;45342;42.662;27.718;2022-10-18T16:06:42;5.05;;;3.28;;
59516;SDS011;45342;42.662;27.718;2022-10-18T16:09:10;5.32;;;3.35;;
59516;SDS011;45342;42.662;27.718;2022-10-18T16:11:37;4.15;;;3.05;;
59516;SDS011;45342;42.662;27.718;2022-10-18T16:14:03;5.57;;;3.13;;
59516;SDS011;45342;42.662;27.718;2022-10-18T16:16:28;7.32;;;3.28;;
59516;SDS011;45342;42.662;27.718;2022-10-18T16:18:54;5.75;;;3.35;;
59516;SDS011;45342;42.662;27.718;2022-10-18T16:21:25;5.22;;;2.97;;
59516;SDS011;45342;42.662;27.718;2022-10-18T16:23:53;5.32;;;3.25;;
59516;SDS011;45342;42.662;27.718;2022-10-18T16:26:19;5.03;;;3.00;;
59516;SDS011;45342;42.662;27.718;2022-10-18T16:28:46;6.13;;;3.50;;
59516;SDS011;45342;42.662;27.718;2022-10-18T16:31:14;4.20;;;3.10;;
59516;SDS011;45342;42.662;27.718;2022-10-18T16:33:41;6.97;;;3.20;;
59516;SDS011;45342;42.662;27.718;2022-10-18T16:36:06;3.67;;;2.72;;
59516;SDS011;45342;42.662;27.718;2022-10-18T16:38:33;5.55;;;3.03;;
59516;SDS011;45342;42.662;27.718;2022-10-18T16:41:02;5.20;;;3.00;;
59516;SDS011;45342;42.662;27.718;2022-10-18T16:43:29;6.05;;;3.05;;
59516;SDS011;45342;42.662;27.718;2022-10-18T16:45:55;3.92;;;2.70;;
59516;SDS011;45342;42.662;27.718;2022-10-18T16:48:22;5.80;;;3.17;;
59516;SDS011;45342;42.662;27.718;2022-10-18T16:50:48;5.32;;;3.15;;
59516;SDS011;45342;42.662;27.718;2022-10-18T16:53:15;4.80;;;3.22;;
59516;SDS011;45342;42.662;27.718;2022-10-18T16:55:43;4.53;;;3.10;;
59516;SDS011;45342;42.662;27.718;2022-10-18T16:58:13;4.95;;;2.88;;
59516;SDS011;45342;42.662;27.718;2022-10-18T17:00:41;5.35;;;3.15;;
59516;SDS011;45342;42.662;27.718;2022-10-18T17:03:08;6.10;;;3.10;;
59516;SDS011;45342;42.662;27.718;2022-10-18T17:05:34;4.07;;;2.90;;
59516;SDS011;45342;42.662;27.718;2022-10-18T17:08:00;4.45;;;3.22;;
59516;SDS011;45342;42.662;27.718;2022-10-18T17:10:25;4.10;;;2.88;;
59516;SDS011;45342;42.662;27.718;2022-10-18T17:12:52;7.72;;;3.15;;
59516;SDS011;45342;42.662;27.718;2022-10-18T17:15:17;6.07;;;3.20;;
59516;SDS011;45342;42.662;27.718;2022-10-18T17:17:46;6.82;;;2.97;;
59516;SDS011;45342;42.662;27.718;2022-10-18T17:20:18;5.65;;;3.15;;
59516;SDS011;45342;42.662;27.718;2022-10-18T17:22:48;3.80;;;2.75;;
59516;SDS011;45342;42.662;27.718;2022-10-18T17:25:15;5.00;;;3.30;;
59516;SDS011;45342;42.662;27.718;2022-10-18T17:27:41;4.13;;;3.17;;
59516;SDS011;45342;42.662;27.718;2022-10-18T17:30:07;4.05;;;2.80;;
59516;SDS011;45342;42.662;27.718;2022-10-18T17:32:34;4.05;;;2.72;;
59516;SDS011;45342;42.662;27.718;2022-10-18T17:34:59;4.85;;;3.00;;
59516;SDS011;45342;42.662;27.718;2022-10-18T17:37:25;3.88;;;2.88;;
59516;SDS011;45342;42.662;27.718;2022-10-18T17:39:53;5.13;;;2.80;;
59516;SDS011;45342;42.662;27.718;2022-10-18T17:42:19;3.83;;;3.13;;
59516;SDS011;45342;42.662;27.718;2022-10-18T17:47:11;4.53;;;3.00;;
59516;SDS011;45342;42.662;27.718;2022-10-18T17:49:37;4.95;;;3.10;;
59516;SDS011;45342;42.662;27.718;2022-10-18T17:52:02;4.60;;;3.28;;
59516;SDS011;45342;42.662;27.718;2022-10-18T17:54:28;4.57;;;2.88;;
59516;SDS011;45342;42.662;27.718;2022-10-18T17:56:54;3.97;;;2.90;;